Time;durP1;ratioP1;P1;durP2;ratioP2;P2;SDS_P1;SDS_P2;PMS_P1;PMS_P2;Temp;Humidity;BMP_temperature;BMP_pressure;BME280_temperature;BME280_humidity;BME280_pressure;Samples;Min_cycle;Max_cycle;Signal;HPM_P1;HPM_P2
2023/05/18 00:01:39;;;;;;;20.77;5.95;;;;;;;2.96;100.00;102547.81;10532476;28;20044;-84
2023/05/18 00:06:40;;;;;;;14.18;7.53;;;;;;;2.98;100.00;102545.38;10532784;28;20086;-84
2023/05/18 00:11:40;;;;;;;17.52;7.28;;;;;;;2.97;100.00;102543.53;10531733;28;20544;-83
2023/05/18 00:16:41;;;;;;;20.52;6.43;;;;;;;2.92;100.00;102545.66;10520489;28;20036;-84
2023/05/18 00:21:42;;;;;;;12.85;7.03;;;;;;;2.90;100.00;102544.59;10510882;28;20123;-83
2023/05/18 00:26:45;;;;;;;25.50;7.20;;;;;;;2.87;100.00;102545.16;10512915;28;20047;-84
2023/05/18 00:31:45;;;;;;;18.20;7.97;;;;;;;2.82;100.00;102550.63;10529873;28;20093;-84
2023/05/18 00:36:46;;;;;;;22.80;7.47;;;;;;;2.79;100.00;102564.13;10513380;28;20047;-83
2023/05/18 00:41:46;;;;;;;20.60;7.40;;;;;;;2.70;100.00;102553.72;10531540;28;20036;-83
2023/05/18 00:46:47;;;;;;;16.98;7.80;;;;;;;2.67;100.00;102557.63;10512726;28;20095;-82
2023/05/18 00:51:47;;;;;;;26.63;8.80;;;;;;;2.62;100.00;102554.56;10530774;28;20052;-84
2023/05/18 00:56:48;;;;;;;17.60;8.55;;;;;;;2.64;100.00;102551.38;10512329;28;20126;-84
2023/05/18 01:01:48;;;;;;;12.50;7.50;;;;;;;2.57;100.00;102556.66;10509717;28;20433;-84
2023/05/18 01:06:49;;;;;;;16.30;7.60;;;;;;;2.52;100.00;102564.69;10501645;28;20074;-84
2023/05/18 01:11:56;;;;;;;15.57;7.45;;;;;;;2.49;100.00;102557.50;10496353;28;20093;-84
2023/05/18 01:17:04;;;;;;;18.30;8.55;;;;;;;2.41;100.00;102554.09;10530425;28;20480;-85
2023/05/18 01:22:34;;;;;;;19.02;8.90;;;;;;;2.34;100.00;102552.50;10528145;28;20032;-84
2023/05/18 01:27:36;;;;;;;21.27;7.13;;;;;;;2.29;100.00;102548.50;10518669;28;20055;-84
2023/05/18 01:32:45;;;;;;;13.25;6.43;;;;;;;2.26;100.00;102548.19;10528674;28;20036;-84
2023/05/18 01:37:45;;;;;;;15.80;7.25;;;;;;;2.32;100.00;102554.00;10512213;28;20028;-84
2023/05/18 01:42:46;;;;;;;15.63;7.35;;;;;;;2.32;100.00;102554.00;10529057;28;20087;-84
2023/05/18 01:47:47;;;;;;;14.60;7.75;;;;;;;2.21;100.00;102559.69;10511513;28;20040;-83
2023/05/18 01:53:11;;;;;;;17.57;9.33;;;;;;;2.16;100.00;102551.47;10526984;28;20109;-84
2023/05/18 01:58:12;;;;;;;24.02;8.70;;;;;;;2.12;100.00;102557.03;10512488;28;20051;-84
2023/05/18 02:03:13;;;;;;;18.75;9.07;;;;;;;2.08;100.00;102553.94;10510406;28;20126;-85
2023/05/18 02:08:13;;;;;;;20.83;8.13;;;;;;;2.13;100.00;102551.13;10510523;28;20056;-84
2023/05/18 02:13:14;;;;;;;23.67;8.70;;;;;;;2.10;100.00;102555.97;10526128;28;20123;-83
2023/05/18 02:18:15;;;;;;;17.17;7.30;;;;;;;2.11;100.00;102562.03;10487554;28;20403;-83
2023/05/18 02:23:16;;;;;;;16.43;7.63;;;;;;;2.08;100.00;102561.69;10525623;28;20040;-84
2023/05/18 02:28:16;;;;;;;23.13;10.25;;;;;;;2.05;100.00;102563.19;10525952;28;20085;-83
2023/05/18 02:33:18;;;;;;;14.73;9.35;;;;;;;2.09;100.00;102559.28;10525244;28;20052;-86
2023/05/18 02:38:20;;;;;;;20.30;9.27;;;;;;;2.08;100.00;102562.63;10525297;28;20040;-86
2023/05/18 02:43:20;;;;;;;12.32;8.20;;;;;;;2.01;100.00;102565.28;10508750;28;20085;-86
2023/05/18 02:48:21;;;;;;;15.18;6.63;;;;;;;2.00;100.00;102568.63;10507945;28;20531;-83
2023/05/18 02:53:21;;;;;;;16.27;7.18;;;;;;;1.96;100.00;102559.59;10524886;28;20056;-82
2023/05/18 02:58:24;;;;;;;15.38;8.63;;;;;;;1.98;100.00;102568.44;10524842;28;20036;-82
2023/05/18 03:03:24;;;;;;;12.45;8.30;;;;;;;2.04;100.00;102560.44;10524433;28;20032;-84
2023/05/18 03:08:25;;;;;;;14.70;9.77;;;;;;;2.05;100.00;102555.44;10520797;28;20488;-85
2023/05/18 03:13:26;;;;;;;24.15;10.55;;;;;;;2.02;100.00;102557.69;10517212;28;20032;-83
2023/05/18 03:18:26;;;;;;;21.05;8.40;;;;;;;1.98;100.00;102554.63;10520417;28;20067;-85
2023/05/18 03:23:27;;;;;;;12.70;7.93;;;;;;;1.93;100.00;102555.78;10510091;28;20177;-86
2023/05/18 03:28:28;;;;;;;15.77;6.95;;;;;;;1.84;100.00;102546.28;10505241;28;20046;-86
2023/05/18 03:33:29;;;;;;;14.20;8.60;;;;;;;1.81;100.00;102551.09;10511002;28;20056;-82
2023/05/18 03:38:31;;;;;;;13.95;7.78;;;;;;;1.82;100.00;102549.41;10486845;28;20382;-82
2023/05/18 03:43:32;;;;;;;19.80;9.98;;;;;;;1.88;100.00;102553.59;10503885;28;20044;-83
2023/05/18 03:48:33;;;;;;;17.02;8.57;;;;;;;1.92;100.00;102559.09;10506355;28;20056;-81
2023/05/18 03:53:35;;;;;;;12.95;8.25;;;;;;;1.88;100.00;102555.25;10512053;28;20052;-83
2023/05/18 03:58:35;;;;;;;18.20;9.00;;;;;;;1.97;100.00;102552.78;10499904;28;20040;-84
2023/05/18 04:03:36;;;;;;;24.88;10.18;;;;;;;2.05;100.00;102557.13;10502321;28;20039;-83
2023/05/18 04:08:37;;;;;;;19.15;9.05;;;;;;;2.15;100.00;102554.78;10511195;28;20044;-83
2023/05/18 04:13:37;;;;;;;24.55;10.23;;;;;;;2.23;100.00;102558.19;10524242;28;20506;-83
2023/05/18 04:18:40;;;;;;;16.58;8.27;;;;;;;2.34;100.00;102568.03;10521690;28;20101;-82
2023/05/18 04:23:41;;;;;;;15.88;8.70;;;;;;;2.46;100.00;102570.09;10505817;28;20521;-83
2023/05/18 04:28:42;;;;;;;27.67;10.93;;;;;;;2.61;100.00;102576.91;10524638;28;20044;-83
2023/05/18 04:33:45;;;;;;;13.90;8.70;;;;;;;2.88;100.00;102584.88;10523716;28;20131;-83
2023/05/18 04:38:45;;;;;;;19.23;9.82;;;;;;;3.13;100.00;102587.47;10493314;28;20064;-83
2023/05/18 04:43:46;;;;;;;20.77;7.35;;;;;;;3.36;100.00;102593.41;10524054;28;20043;-83
2023/05/18 04:48:48;;;;;;;26.55;9.23;;;;;;;3.61;100.00;102593.38;10512414;28;20130;-85
2023/05/18 04:53:49;;;;;;;13.65;7.15;;;;;;;3.85;100.00;102595.72;10530532;28;20044;-83
2023/05/18 04:58:50;;;;;;;18.73;7.22;;;;;;;4.13;100.00;102596.88;10511954;28;20526;-82
2023/05/18 05:03:50;;;;;;;14.60;6.85;;;;;;;4.64;100.00;102598.44;10531652;28;20070;-82
2023/05/18 05:08:51;;;;;;;11.27;6.50;;;;;;;5.02;100.00;102595.19;10529462;28;20728;-84
2023/05/18 05:13:51;;;;;;;13.05;7.38;;;;;;;5.57;100.00;102587.56;10530110;28;20231;-87
2023/05/18 05:18:52;;;;;;;19.08;8.30;;;;;;;6.43;100.00;102583.41;10528198;28;20127;-86
2023/05/18 05:23:52;;;;;;;10.93;5.47;;;;;;;7.31;100.00;102561.72;10529160;28;20048;-88
2023/05/18 05:28:53;;;;;;;17.17;8.63;;;;;;;8.16;100.00;102543.75;10529699;28;20040;-88
2023/05/18 05:33:53;;;;;;;11.68;4.75;;;;;;;8.87;100.00;102535.63;10529592;28;20474;-88
2023/05/18 05:38:54;;;;;;;12.25;5.95;;;;;;;9.74;100.00;102539.88;10516266;28;20067;-88
2023/05/18 05:43:55;;;;;;;10.55;6.63;;;;;;;10.38;100.00;102551.75;10520249;28;20119;-87
2023/05/18 05:48:56;;;;;;;8.37;3.63;;;;;;;10.97;100.00;102539.47;10525869;28;20036;-84
2023/05/18 05:53:56;;;;;;;9.70;4.97;;;;;;;11.50;100.00;102551.06;10526916;28;20032;-88
2023/05/18 05:58:57;;;;;;;11.55;5.45;;;;;;;11.37;100.00;102551.94;10527239;28;20110;-88
2023/05/18 06:03:57;;;;;;;18.60;5.05;;;;;;;11.19;100.00;102556.75;10491381;28;20461;-85
2023/05/18 06:08:58;;;;;;;10.88;5.53;;;;;;;11.41;100.00;102548.72;10520499;28;20151;-83
2023/05/18 06:13:59;;;;;;;16.15;4.75;;;;;;;11.62;100.00;102548.41;10529108;28;20044;-83
2023/05/18 06:18:59;;;;;;;10.00;5.00;;;;;;;12.02;100.00;102557.38;10528404;28;20032;-88
2023/05/18 06:24:00;;;;;;;21.48;4.88;;;;;;;12.79;100.00;102550.19;10526120;28;20116;-87
2023/05/18 06:29:01;;;;;;;10.52;4.85;;;;;;;13.87;94.23;102549.94;10512111;28;20174;-88
2023/05/18 06:34:02;;;;;;;12.93;4.82;;;;;;;13.99;89.64;102555.06;10460872;28;20070;-88
2023/05/18 06:39:04;;;;;;;9.63;5.97;;;;;;;14.15;90.27;102555.16;10503549;28;20102;-87
2023/05/18 06:44:04;;;;;;;9.07;5.00;;;;;;;14.45;85.05;102559.53;10480494;28;20041;-88
2023/05/18 06:49:05;;;;;;;11.43;5.47;;;;;;;14.55;79.98;102564.50;10481492;28;20048;-90
2023/05/18 06:54:07;;;;;;;8.93;6.20;;;;;;;14.27;85.17;102559.34;10508282;28;20071;-90
2023/05/18 06:59:07;;;;;;;12.98;5.15;;;;;;;14.05;83.96;102561.59;10525128;28;20467;-93
2023/05/18 07:04:08;;;;;;;13.20;5.30;;;;;;;14.47;82.73;102560.50;10514292;28;20040;-88
2023/05/18 07:09:08;;;;;;;11.07;5.28;;;;;;;14.40;84.84;102561.91;10512936;28;20056;-88
2023/05/18 07:14:09;;;;;;;17.27;4.90;;;;;;;15.01;81.98;102570.66;10524122;28;20543;-88
2023/05/18 07:19:10;;;;;;;9.93;5.93;;;;;;;15.19;83.21;102569.03;10524310;28;20142;-85
2023/05/18 07:24:10;;;;;;;11.13;5.28;;;;;;;15.62;79.20;102570.50;10527173;28;20136;-89
2023/05/18 07:29:11;;;;;;;7.93;4.85;;;;;;;16.87;74.63;102562.81;10507355;28;20048;-86
2023/05/18 07:34:11;;;;;;;17.53;6.17;;;;;;;17.64;68.36;102561.09;10507536;28;20490;-87
2023/05/18 07:39:17;;;;;;;9.80;5.85;;;;;;;17.70;65.05;102570.22;10525363;28;20040;-85
2023/05/18 07:44:17;;;;;;;12.30;4.63;;;;;;;17.73;69.85;102567.72;10523993;28;20060;-86
2023/05/18 07:49:18;;;;;;;11.80;5.40;;;;;;;18.56;60.30;102568.63;10525337;28;20542;-81
2023/05/18 07:54:19;;;;;;;15.03;6.40;;;;;;;18.90;60.13;102562.97;10519508;28;20075;-85
2023/05/18 07:59:19;;;;;;;10.80;4.80;;;;;;;19.45;57.58;102565.09;10525108;28;20040;-85
2023/05/18 08:04:20;;;;;;;11.07;4.47;;;;;;;19.90;52.96;102565.00;10520453;28;20085;-83
2023/05/18 08:09:23;;;;;;;7.93;4.77;;;;;;;20.15;56.27;102563.22;10523060;28;20040;-84
2023/05/18 08:14:24;;;;;;;10.88;4.43;;;;;;;20.48;52.35;102559.91;10526099;28;20032;-85
2023/05/18 08:19:24;;;;;;;10.10;5.17;;;;;;;20.77;53.45;102557.31;10530696;28;20451;-85
2023/05/18 08:24:25;;;;;;;7.97;3.17;;;;;;;21.10;46.06;102556.59;10514349;28;20078;-85
2023/05/18 08:29:25;;;;;;;15.10;3.97;;;;;;;20.24;48.65;102552.91;10532175;28;20173;-84
2023/05/18 08:34:26;;;;;;;9.47;4.07;;;;;;;20.09;44.26;102555.03;10532354;28;20044;-84
2023/05/18 08:39:30;;;;;;;11.20;5.70;;;;;;;20.14;48.92;102541.94;10530974;28;20164;-83
2023/05/18 08:44:39;;;;;;;10.07;5.03;;;;;;;21.42;46.17;102545.13;10532220;28;20048;-84
2023/05/18 08:49:40;;;;;;;17.20;5.30;;;;;;;21.81;44.44;102540.91;10531019;28;20038;-86
2023/05/18 08:54:41;;;;;;;;;;;;;;;22.55;43.43;102534.84;10529872;28;20043;-85
2023/05/18 08:59:41;;;;;;;9.70;3.47;;;;;;;22.01;42.87;102525.47;10513304;28;20312;-87
2023/05/18 09:04:44;;;;;;;8.33;3.90;;;;;;;21.86;43.10;102528.63;10511970;28;20115;-85
2023/05/18 09:09:45;;;;;;;8.75;3.30;;;;;;;22.35;40.08;102529.00;10514323;28;20047;-84
2023/05/18 09:14:45;;;;;;;12.33;4.90;;;;;;;22.32;40.89;102525.34;10528982;28;20204;-86
2023/05/18 09:19:46;;;;;;;16.97;5.40;;;;;;;22.50;40.70;102528.50;10512872;28;20052;-86
2023/05/18 09:24:47;;;;;;;12.67;3.50;;;;;;;21.92;39.36;102538.56;10528401;28;20056;-87
2023/05/18 09:29:55;;;;;;;16.03;5.13;;;;;;;20.86;42.87;102531.88;10510081;28;20028;-88
2023/05/18 09:34:55;;;;;;;13.95;4.47;;;;;;;21.11;43.07;102528.25;10528558;28;20111;-90
2023/05/18 09:40:00;;;;;;;9.73;4.10;;;;;;;21.09;39.88;102520.19;10511299;28;20032;-89
2023/05/18 09:45:01;;;;;;;9.10;4.40;;;;;;;20.00;40.72;102525.47;10529054;28;20036;-85
2023/05/18 09:50:02;;;;;;;11.83;5.53;;;;;;;18.09;44.03;102537.50;10528445;28;20032;-85
2023/05/18 09:55:03;;;;;;;8.02;3.55;;;;;;;18.68;43.34;102523.16;10511289;28;20043;-84
2023/05/18 10:00:09;;;;;;;8.00;4.40;;;;;;;19.71;49.41;102534.19;10492879;28;20085;-87
2023/05/18 10:05:30;;;;;;;12.00;5.70;;;;;;;19.99;42.15;102518.34;10497205;28;20044;-82
2023/05/18 10:10:31;;;;;;;12.02;4.13;;;;;;;20.45;41.49;102501.31;10526619;28;20040;-88
2023/05/18 10:15:32;;;;;;;13.00;5.07;;;;;;;21.22;39.86;102507.25;10509146;28;20064;-88
2023/05/18 10:20:32;;;;;;;9.13;3.63;;;;;;;21.91;43.76;102504.75;10526326;28;20050;-85
2023/05/18 10:25:33;;;;;;;9.97;5.13;;;;;;;22.22;36.06;102492.22;10509196;28;20079;-87
2023/05/18 10:30:33;;;;;;;12.33;4.60;;;;;;;21.59;41.11;102502.97;10509203;28;20071;-87
2023/05/18 10:35:34;;;;;;;9.17;4.27;;;;;;;21.24;41.78;102484.22;10526345;28;20044;-86
2023/05/18 10:40:35;;;;;;;8.32;4.38;;;;;;;22.12;42.38;102489.31;10525229;28;20396;-86
2023/05/18 10:45:36;;;;;;;13.63;5.40;;;;;;;22.03;39.33;102486.44;10524560;28;20043;-84
2023/05/18 10:50:37;;;;;;;16.30;4.57;;;;;;;22.24;39.33;102491.38;10525934;28;20506;-85
2023/05/18 10:55:37;;;;;;;11.73;4.70;;;;;;;22.29;41.51;102491.53;10509703;28;20032;-81
2023/05/18 11:00:38;;;;;;;11.10;5.00;;;;;;;22.24;39.88;102478.06;10526661;28;20049;-79
2023/05/18 11:05:40;;;;;;;6.93;3.70;;;;;;;21.27;39.24;102479.91;10507505;28;20036;-86
2023/05/18 11:10:45;;;;;;;10.37;4.33;;;;;;;20.66;44.36;102486.91;10504027;28;20082;-83
2023/05/18 11:15:52;;;;;;;9.45;4.07;;;;;;;21.23;42.40;102482.44;10507255;28;20274;-85
2023/05/18 11:20:52;;;;;;;7.95;3.53;;;;;;;21.07;43.02;102475.78;10525301;28;20047;-83
2023/05/18 11:25:53;;;;;;;13.10;4.35;;;;;;;20.78;40.02;102468.69;10524432;28;20137;-85
2023/05/18 11:30:53;;;;;;;6.15;4.25;;;;;;;21.32;40.27;102469.38;10524955;28;20518;-84
2023/05/18 11:36:13;;;;;;;9.98;6.18;;;;;;;22.24;38.68;102454.06;10526114;28;20040;-85
2023/05/18 11:41:33;;;;;;;10.57;4.28;;;;;;;22.61;38.94;102445.16;10508350;28;20492;-89
2023/05/18 11:46:34;;;;;;;11.38;4.00;;;;;;;20.79;39.34;102451.00;10523816;28;20036;-84
2023/05/18 11:52:12;;;;;;;8.15;3.70;;;;;;;21.20;41.31;102453.06;10532803;28;20046;-85
2023/05/18 11:57:13;;;;;;;14.13;5.18;;;;;;;22.05;39.55;102439.38;10539557;28;20383;-85
2023/05/18 12:02:21;;;;;;;12.65;5.35;;;;;;;22.40;37.70;102436.66;10521004;28;20111;-86
2023/05/18 12:07:22;;;;;;;11.02;4.50;;;;;;;21.87;37.66;102442.47;10538518;28;20040;-88
2023/05/18 12:12:23;;;;;;;10.27;4.70;;;;;;;21.68;38.64;102431.34;10505004;28;20056;-85
2023/05/18 12:17:49;;;;;;;10.57;4.70;;;;;;;21.40;43.07;102432.34;10529472;28;20115;-85
2023/05/18 12:22:51;;;;;;;10.93;4.63;;;;;;;20.68;44.00;102427.59;10526395;28;20043;-88
2023/05/18 12:27:52;;;;;;;8.57;4.05;;;;;;;20.06;45.01;102422.06;10538009;28;20036;-87
2023/05/18 12:32:54;;;;;;;8.90;5.00;;;;;;;19.96;42.83;102431.50;10537414;28;20035;-86
2023/05/18 12:37:56;;;;;;;10.32;4.78;;;;;;;20.34;43.20;102425.59;10520444;28;20051;-84
2023/05/18 12:43:04;;;;;;;15.77;4.38;;;;;;;20.51;41.84;102415.53;10537031;28;20398;-85
2023/05/18 12:48:05;;;;;;;13.95;6.50;;;;;;;20.20;45.10;102407.47;10506290;28;20028;-85
2023/05/18 12:53:06;;;;;;;5.33;3.97;;;;;;;19.66;43.65;102403.88;10537275;28;20399;-84
2023/05/18 12:58:15;;;;;;;9.82;5.03;;;;;;;18.36;46.74;102411.41;10536685;28;20035;-88
2023/05/18 13:03:20;;;;;;;6.60;4.45;;;;;;;19.07;47.70;102404.44;10517651;28;20141;-87
2023/05/18 13:08:20;;;;;;;10.82;5.47;;;;;;;19.52;44.04;102399.84;10529834;28;20035;-84
2023/05/18 13:13:21;;;;;;;11.32;4.25;;;;;;;20.37;42.59;102394.72;10529577;28;20034;-85
2023/05/18 13:18:21;;;;;;;9.68;4.13;;;;;;;20.72;43.11;102391.31;10529567;28;20071;-88
2023/05/18 13:23:24;;;;;;;10.60;5.07;;;;;;;20.43;45.00;102382.47;10513452;28;20043;-84
2023/05/18 13:28:25;;;;;;;7.97;4.28;;;;;;;20.73;42.44;102386.91;10512428;28;20104;-85
2023/05/18 13:33:25;;;;;;;9.27;4.73;;;;;;;20.59;41.67;102371.44;10528739;28;20360;-86
2023/05/18 13:38:26;;;;;;;8.10;4.60;;;;;;;20.09;46.29;102376.97;10531042;28;20059;-87
2023/05/18 13:43:26;;;;;;;13.35;3.13;;;;;;;20.17;46.16;102364.84;10511634;28;20066;-84
2023/05/18 13:48:27;;;;;;;9.05;4.75;;;;;;;20.78;45.36;102366.72;10529717;28;20178;-83
2023/05/18 13:53:28;;;;;;;11.83;3.77;;;;;;;21.74;41.67;102357.75;10528868;28;20032;-84
2023/05/18 13:58:28;;;;;;;15.30;5.07;;;;;;;22.22;40.58;102350.91;10528676;28;20420;-82
2023/05/18 14:03:29;;;;;;;6.05;4.07;;;;;;;22.22;42.72;102357.13;10528365;28;20056;-87
2023/05/18 14:08:30;;;;;;;8.00;4.07;;;;;;;21.48;43.12;102350.88;10529233;28;20127;-84
2023/05/18 14:13:30;;;;;;;8.27;4.10;;;;;;;20.69;41.42;102349.59;10527754;28;20127;-86
2023/05/18 14:18:31;;;;;;;8.17;4.13;;;;;;;20.34;44.12;102343.19;10527391;28;20494;-84
2023/05/18 14:23:31;;;;;;;9.32;4.13;;;;;;;19.72;48.63;102333.22;10496139;28;20063;-82
2023/05/18 14:28:32;;;;;;;85.03;61.45;;;;;;;19.45;48.16;102339.41;10502753;28;20039;-83
2023/05/18 14:33:32;;;;;;;8.50;4.57;;;;;;;18.81;46.36;102333.56;10524796;28;20044;-83
2023/05/18 14:38:33;;;;;;;13.15;5.75;;;;;;;18.83;46.01;102323.94;10525382;28;20060;-81
2023/05/18 14:43:33;;;;;;;11.70;4.05;;;;;;;19.02;49.17;102325.56;10526412;28;20130;-83
2023/05/18 14:48:34;;;;;;;9.02;4.38;;;;;;;18.92;46.16;102326.91;10527617;28;20454;-87
2023/05/18 14:53:34;;;;;;;16.98;11.73;;;;;;;19.11;47.36;102332.91;10527610;28;20043;-83
2023/05/18 14:58:35;;;;;;;9.90;3.75;;;;;;;18.99;50.87;102330.75;10526196;28;20028;-83
2023/05/18 15:03:35;;;;;;;10.63;6.63;;;;;;;18.73;46.12;102325.34;10523859;28;20119;-84
2023/05/18 15:08:36;;;;;;;11.82;6.03;;;;;;;18.36;48.53;102327.50;10526443;28;20394;-85
2023/05/18 15:13:37;;;;;;;7.13;3.28;;;;;;;17.66;49.91;102319.41;10523674;28;20059;-85
2023/05/18 15:18:37;;;;;;;9.25;4.80;;;;;;;17.19;51.94;102327.13;10523104;28;20170;-83
2023/05/18 15:23:38;;;;;;;32.33;15.77;;;;;;;16.90;51.56;102325.81;10525017;28;20135;-83
2023/05/18 15:28:39;;;;;;;31.60;19.75;;;;;;;16.63;53.25;102323.72;10524036;28;20129;-83
2023/05/18 15:33:42;;;;;;;7.88;5.60;;;;;;;16.47;53.83;102319.44;10523550;28;20475;-81
2023/05/18 15:38:42;;;;;;;11.77;4.07;;;;;;;16.17;55.34;102315.44;10524424;28;20539;-82
2023/05/18 15:43:45;;;;;;;9.35;4.63;;;;;;;15.90;56.28;102309.72;10524712;28;20068;-82
2023/05/18 15:48:45;;;;;;;13.40;3.35;;;;;;;15.56;55.10;102311.56;10523869;28;20047;-81
2023/05/18 15:53:46;;;;;;;9.15;5.15;;;;;;;15.35;57.29;102300.81;10523732;28;20445;-80
2023/05/18 15:58:47;;;;;;;8.70;4.28;;;;;;;15.31;58.56;102309.41;10508327;28;20076;-80
2023/05/18 16:03:47;;;;;;;39.55;21.92;;;;;;;15.14;59.79;102296.25;10523782;28;20040;-81
2023/05/18 16:08:48;;;;;;;8.88;4.35;;;;;;;15.01;59.95;102299.09;10524439;28;20109;-81
2023/05/18 16:13:49;;;;;;;9.65;2.80;;;;;;;15.05;62.79;102299.34;10524957;28;20036;-81
2023/05/18 16:18:50;;;;;;;11.77;6.85;;;;;;;15.19;63.42;102294.75;10506507;28;20395;-82
2023/05/18 16:23:50;;;;;;;10.98;4.68;;;;;;;15.29;62.19;102293.53;10522152;28;20055;-82
2023/05/18 16:28:51;;;;;;;7.95;3.78;;;;;;;15.43;60.45;102286.28;10524954;28;20040;-81
2023/05/18 16:33:51;;;;;;;9.07;4.20;;;;;;;15.49;59.62;102288.34;10507543;28;20066;-82
2023/05/18 16:38:52;;;;;;;14.82;3.78;;;;;;;15.57;61.56;102279.09;10529966;28;20067;-85
2023/05/18 16:43:52;;;;;;;9.18;4.45;;;;;;;15.45;59.96;102287.28;10531024;28;20035;-81
2023/05/18 16:48:53;;;;;;;10.23;2.92;;;;;;;15.35;61.69;102282.38;10530757;28;20032;-80
2023/05/18 16:53:54;;;;;;;6.25;2.92;;;;;;;15.15;60.64;102282.25;10530283;28;20059;-80
2023/05/18 16:58:54;;;;;;;9.07;4.13;;;;;;;15.07;62.30;102286.22;10532055;28;21238;-81
2023/05/18 17:03:55;;;;;;;7.95;3.30;;;;;;;14.93;61.85;102286.41;10530018;28;20127;-81
2023/05/18 17:08:56;;;;;;;7.45;2.55;;;;;;;14.75;63.32;102288.06;10513009;28;20510;-82
2023/05/18 17:13:58;;;;;;;5.50;2.83;;;;;;;14.59;63.65;102283.69;10531573;28;20039;-82
2023/05/18 17:18:59;;;;;;;9.05;4.80;;;;;;;14.47;65.35;102284.84;10525562;28;20063;-81
2023/05/18 17:23:59;;;;;;;6.07;2.65;;;;;;;14.29;67.18;102284.72;10528426;28;20067;-83
2023/05/18 17:29:00;;;;;;;9.77;3.55;;;;;;;14.10;64.08;102296.88;10529094;28;20039;-81
2023/05/18 17:34:00;;;;;;;6.97;3.22;;;;;;;13.88;66.58;102292.13;10530350;28;20537;-82
2023/05/18 17:39:02;;;;;;;10.13;3.55;;;;;;;13.64;68.28;102294.25;10528387;28;20123;-82
2023/05/18 17:44:03;;;;;;;9.75;3.50;;;;;;;13.51;69.94;102280.38;10528710;28;20782;-81
2023/05/18 17:49:03;;;;;;;8.95;4.07;;;;;;;13.42;71.47;102271.97;10527026;28;20035;-81
2023/05/18 17:54:04;;;;;;;8.07;3.00;;;;;;;13.35;73.57;102277.63;10527834;28;20047;-81
2023/05/18 17:59:05;;;;;;;9.85;3.45;;;;;;;13.25;73.24;102272.66;10527266;28;20490;-80
2023/05/18 18:04:05;;;;;;;9.88;3.67;;;;;;;13.02;76.50;102281.00;10527975;28;20497;-82
2023/05/18 18:09:06;;;;;;;8.13;3.53;;;;;;;12.95;79.29;102286.69;10526402;28;20066;-81
2023/05/18 18:14:06;;;;;;;8.77;3.42;;;;;;;12.80;81.15;102280.50;10527148;28;20070;-81
2023/05/18 18:19:07;;;;;;;8.82;3.63;;;;;;;12.42;84.90;102279.94;10529621;28;20482;-80
2023/05/18 18:24:08;;;;;;;8.82;2.90;;;;;;;12.20;90.95;102281.19;10526285;28;20063;-80
2023/05/18 18:29:08;;;;;;;7.55;3.05;;;;;;;12.06;91.50;102271.53;10525361;28;20036;-81
2023/05/18 18:34:10;;;;;;;9.15;4.72;;;;;;;12.00;92.88;102282.56;10524377;28;20086;-84
2023/05/18 18:39:12;;;;;;;8.10;2.88;;;;;;;11.93;91.60;102288.19;10525192;28;20036;-82
2023/05/18 18:44:12;;;;;;;6.70;3.20;;;;;;;11.80;93.96;102287.41;10527277;28;20113;-82
2023/05/18 18:49:13;;;;;;;11.20;3.13;;;;;;;11.69;95.16;102289.28;10527021;28;20128;-83
2023/05/18 18:54:13;;;;;;;6.47;3.53;;;;;;;11.52;96.21;102293.44;10526304;28;20047;-82
2023/05/18 18:59:14;;;;;;;12.15;4.05;;;;;;;11.41;98.78;102297.94;10524946;28;20040;-82
2023/05/18 19:04:15;;;;;;;9.98;3.47;;;;;;;11.32;97.89;102289.47;10527227;28;20129;-82
2023/05/18 19:09:15;;;;;;;12.32;3.92;;;;;;;11.13;100.00;102298.69;10508712;28;20067;-81
2023/05/18 19:14:16;;;;;;;8.77;3.95;;;;;;;10.86;100.00;102300.34;10524351;28;20059;-81
2023/05/18 19:19:16;;;;;;;9.88;3.97;;;;;;;10.45;100.00;102309.72;10502022;28;20120;-81
2023/05/18 19:24:17;;;;;;;11.25;4.20;;;;;;;10.08;100.00;102320.09;10465993;28;20063;-81
2023/05/18 19:29:18;;;;;;;13.15;5.63;;;;;;;9.68;100.00;102321.59;10490241;28;20040;-81
2023/05/18 19:34:20;;;;;;;15.05;5.22;;;;;;;9.44;100.00;102330.22;10507672;28;20436;-81
2023/05/18 19:39:20;;;;;;;9.30;5.50;;;;;;;9.51;100.00;102333.41;10524032;28;20043;-80
2023/05/18 19:44:21;;;;;;;10.40;6.55;;;;;;;9.59;100.00;102336.59;10506975;28;20424;-79
2023/05/18 19:49:21;;;;;;;11.18;6.03;;;;;;;9.52;100.00;102332.63;10525878;28;20164;-81
2023/05/18 19:54:22;;;;;;;13.00;5.68;;;;;;;9.49;100.00;102344.53;10525030;28;20135;-82
2023/05/18 19:59:22;;;;;;;14.02;5.75;;;;;;;9.33;100.00;102351.22;10524835;28;20071;-82
2023/05/18 20:04:23;;;;;;;15.02;6.03;;;;;;;9.28;100.00;102354.28;10524305;28;20483;-82
2023/05/18 20:09:24;;;;;;;13.95;5.63;;;;;;;9.28;100.00;102359.50;10523156;28;20119;-81
2023/05/18 20:14:25;;;;;;;10.05;6.88;;;;;;;9.23;100.00;102364.34;10531735;28;20047;-81
2023/05/18 20:19:26;;;;;;;13.27;6.55;;;;;;;9.15;100.00;102365.47;10532856;28;20170;-81
2023/05/18 20:24:26;;;;;;;8.65;5.85;;;;;;;9.08;100.00;102361.47;10532926;28;20069;-81
2023/05/18 20:29:27;;;;;;;11.48;5.80;;;;;;;9.06;100.00;102365.69;10533182;28;20032;-81
2023/05/18 20:34:27;;;;;;;16.60;7.95;;;;;;;8.96;100.00;102372.78;10530956;28;20068;-81
2023/05/18 20:39:28;;;;;;;24.58;7.68;;;;;;;8.80;100.00;102375.88;10532319;28;20042;-81
2023/05/18 20:44:30;;;;;;;10.40;6.53;;;;;;;8.57;100.00;102374.06;10513608;28;20455;-81
2023/05/18 20:49:30;;;;;;;20.90;7.30;;;;;;;8.37;100.00;102382.84;10532079;28;20048;-81
2023/05/18 20:54:31;;;;;;;14.48;7.22;;;;;;;8.07;100.00;102374.34;10530556;28;20123;-81
2023/05/18 20:59:31;;;;;;;17.35;6.40;;;;;;;7.88;100.00;102385.88;10529978;28;20093;-80
2023/05/18 21:04:32;;;;;;;11.45;7.28;;;;;;;7.57;100.00;102387.63;10530749;28;20559;-81
2023/05/18 21:09:33;;;;;;;11.18;5.43;;;;;;;7.18;100.00;102384.34;10528352;28;20064;-81
2023/05/18 21:14:33;;;;;;;16.83;6.28;;;;;;;6.94;100.00;102388.38;10530407;28;20397;-81
2023/05/18 21:19:34;;;;;;;13.65;7.78;;;;;;;6.73;100.00;102393.53;10510149;28;20071;-81
2023/05/18 21:24:34;;;;;;;10.60;5.80;;;;;;;6.46;100.00;102386.00;10486662;28;20128;-81
2023/05/18 21:29:35;;;;;;;13.48;8.23;;;;;;;6.23;100.00;102396.03;10524587;28;20068;-81
2023/05/18 21:34:35;;;;;;;12.30;7.38;;;;;;;6.13;100.00;102403.00;10487331;28;20101;-80
2023/05/18 21:39:36;;;;;;;15.43;7.80;;;;;;;5.96;100.00;102401.47;10488792;28;20120;-81
2023/05/18 21:44:36;;;;;;;10.98;6.85;;;;;;;5.96;100.00;102393.69;10488699;28;20068;-80
2023/05/18 21:49:37;;;;;;;15.02;7.68;;;;;;;5.95;100.00;102396.13;10529968;28;20823;-80
2023/05/18 21:54:37;;;;;;;14.45;7.18;;;;;;;5.99;100.00;102393.03;10529850;28;20068;-81
2023/05/18 21:59:38;;;;;;;19.52;7.70;;;;;;;5.87;100.00;102390.25;10529271;28;20042;-80
2023/05/18 22:04:38;;;;;;;14.10;8.27;;;;;;;5.80;100.00;102403.44;10529790;28;20075;-81
2023/05/18 22:09:39;;;;;;;17.02;9.02;;;;;;;5.79;100.00;102399.03;10528334;28;20539;-82
2023/05/18 22:14:39;;;;;;;13.95;8.07;;;;;;;5.88;100.00;102400.75;10526694;28;20063;-81
2023/05/18 22:19:40;;;;;;;14.77;8.13;;;;;;;5.96;100.00;102403.13;10531496;28;20044;-81
2023/05/18 22:24:43;;;;;;;13.23;8.47;;;;;;;6.08;100.00;102395.59;10527251;28;20040;-81
2023/05/18 22:29:44;;;;;;;10.95;7.22;;;;;;;6.20;100.00;102396.69;10526542;28;20127;-81
2023/05/18 22:34:44;;;;;;;13.80;8.65;;;;;;;6.10;100.00;102392.34;10524593;28;20407;-81
2023/05/18 22:39:45;;;;;;;11.63;7.38;;;;;;;5.94;100.00;102395.22;10526716;28;20070;-81
2023/05/18 22:44:45;;;;;;;13.13;8.20;;;;;;;5.80;100.00;102396.53;10508314;28;20090;-80
2023/05/18 22:49:46;;;;;;;11.40;7.15;;;;;;;5.82;100.00;102389.81;10521573;28;20527;-81
2023/05/18 22:54:47;;;;;;;14.70;7.63;;;;;;;5.87;100.00;102390.25;10488641;28;20192;-80